.
WxDataArchive / Data Records for 2009-02-02
2009-02-01 February 2009 2009-02-03

Data Records for Monday, 02 February 2009

Time	Temp	Chill	HIndex	Humid	Dewpt	 Wind 	HiWind	WindDir	Rain 	Barom 
-----	----	-----	------	-----	-----	------	------	-------	-----	----- 
00:00	29.0	29.0	29.0	67	19.4	0	2	248	0.00	30.035 
00:05	28.8	28.8	28.8	67	19.2	0	2	248	0.00	30.034 
00:10	28.7	28.7	28.7	67	19.2	0	1	248	0.00	30.034 
00:15	28.5	28.5	28.5	67	19.0	0	2	248	0.00	30.033 
00:20	28.4	28.4	28.4	68	19.2	0	2	248	0.00	30.034 
00:25	28.4	28.4	28.4	68	19.2	0	1	248	0.00	30.036 
00:30	28.2	28.2	28.2	68	19.0	0	2	248	0.00	30.036 
00:35	28.1	28.1	28.1	68	18.9	0	2	248	0.00	30.037 
00:40	27.9	27.9	27.9	68	18.7	0	1	248	0.00	30.037 
00:45	27.8	27.8	27.8	68	18.6	0	1	248	0.00	30.037 
00:50	27.6	27.6	27.6	69	18.8	0	1	248	0.00	30.036 
00:55	27.6	27.6	27.6	69	18.8	0	2	248	0.00	30.036 
01:00	27.5	27.5	27.5	69	18.7	0	1	248	0.00	30.036 
01:05	27.5	27.5	27.5	69	18.7	0	1	248	0.00	30.037 
01:10	27.3	27.3	27.3	69	18.5	0	1	248	0.00	30.037 
01:15	27.3	27.3	27.3	69	18.5	0	1	248	0.00	30.037 
01:20	27.2	27.2	27.2	69	18.4	0	2	248	0.00	30.037 
01:25	27.0	27.0	27.0	69	18.2	0	2	248	0.00	30.036 
01:30	27.0	27.0	27.0	70	18.5	0	2	248	0.00	30.036 
01:35	26.9	26.9	26.9	70	18.4	0	1	248	0.00	30.036 
01:40	26.7	26.7	26.7	70	18.3	0	1	248	0.00	30.036 
01:45	26.7	26.7	26.7	71	18.6	0	2	248	0.00	30.037 
01:50	26.6	26.6	26.6	70	18.2	0	2	248	0.00	30.038 
01:55	26.6	26.6	26.6	71	18.5	0	2	248	0.00	30.039 
02:00	26.6	26.6	26.6	71	18.5	0	1	248	0.00	30.041 
02:05	26.4	26.4	26.4	71	18.3	0	1	248	0.00	30.042 
02:10	26.4	26.4	26.4	71	18.3	0	1	248	0.00	30.046 
02:15	26.3	26.3	26.3	71	18.2	0	1	248	0.00	30.047 
02:20	26.3	26.3	26.3	72	18.5	0	1	248	0.00	30.048 
02:25	26.1	26.1	26.1	72	18.3	0	1	248	0.00	30.046 
02:30	26.0	26.0	26.0	72	18.2	0	1	248	0.00	30.045 
02:35	25.8	25.8	25.8	72	18.0	0	1	248	0.00	30.048 
02:40	25.8	25.8	25.8	72	18.0	0	1	248	0.00	30.046 
02:45	25.7	25.7	25.7	73	18.3	0	1	248	0.00	30.046 
02:50	25.6	25.6	25.6	73	18.2	0	2	248	0.00	30.045 
02:55	25.4	25.4	25.4	73	18.0	0	2	248	0.00	30.045 
03:00	25.4	25.4	25.4	74	18.3	0	1	248	0.00	30.047 
03:05	25.3	25.3	25.3	74	18.2	0	2	248	0.00	30.047 
03:10	25.3	25.3	25.3	74	18.2	0	2	248	0.00	30.044 
03:15	25.3	25.3	25.3	74	18.2	0	1	248	0.00	30.045 
03:20	25.1	25.1	25.1	75	18.3	0	1	248	0.00	30.045 
03:25	25.1	25.1	25.1	75	18.3	0	2	248	0.00	30.043 
03:30	25.0	25.0	25.0	75	18.2	0	1	248	0.00	30.040 
03:35	24.8	24.8	24.8	76	18.3	0	2	248	0.00	30.040 
03:40	24.8	24.8	24.8	76	18.3	0	2	248	0.00	30.039 
03:45	24.8	24.8	24.8	76	18.3	0	2	248	0.00	30.039 
03:50	24.7	24.7	24.7	76	18.2	0	2	248	0.00	30.039 
03:55	24.5	24.5	24.5	76	18.0	0	1	248	0.00	30.040 
04:00	24.5	24.5	24.5	76	18.0	0	1	248	0.00	30.041 
04:05	24.4	24.4	24.4	77	18.2	0	2	248	0.00	30.044 
04:10	24.2	24.2	24.2	77	18.1	0	1	248	0.00	30.045 
04:15	24.1	24.1	24.1	77	18.0	0	1	248	0.00	30.045 
04:20	23.9	23.9	23.9	77	17.8	0	2	248	0.00	30.047 
04:25	23.9	23.9	23.9	77	17.8	0	2	248	0.00	30.046 
04:30	23.8	23.8	23.8	78	18.0	0	2	248	0.00	30.049 
04:35	23.6	23.6	23.6	78	17.8	0	2	248	0.00	30.049 
04:40	23.6	23.6	23.6	78	17.8	1	3	248	0.00	30.052 
04:45	23.5	23.5	23.5	78	17.7	0	2	248	0.00	30.055 
04:50	23.5	23.5	23.5	79	18.0	1	3	248	0.00	30.055 
04:55	23.5	23.5	23.5	79	18.0	1	3	248	0.00	30.056 
05:00	23.3	23.3	23.3	79	17.8	1	3	248	0.00	30.057 
05:05	23.3	23.3	23.3	79	17.8	0	2	248	0.00	30.059 
05:10	23.3	23.3	23.3	80	18.1	1	3	248	0.00	30.059 
05:15	23.3	23.3	23.3	80	18.1	1	4	248	0.00	30.058 
05:20	23.2	23.2	23.2	80	18.0	1	3	248	0.00	30.057 
05:25	23.2	23.2	23.2	80	18.0	1	4	248	0.00	30.058 
05:30	23.0	23.0	23.0	80	17.8	1	2	248	0.00	30.058 
05:35	22.9	22.9	22.9	81	18.0	0	2	248	0.00	30.057 
05:40	22.9	22.9	22.9	81	18.0	0	2	248	0.00	30.058 
05:45	22.5	22.5	22.5	81	17.6	0	2	248	0.00	30.058 
05:50	22.4	22.4	22.4	81	17.5	0	1	248	0.00	30.058 
05:55	22.2	22.2	22.2	81	17.3	0	1	248	0.00	30.060 
06:00	21.9	21.9	21.9	81	17.0	0	1	248	0.00	30.059 
06:05	21.4	21.4	21.4	81	16.5	0	1	248	0.00	30.056 
06:10	21.1	21.1	21.1	81	16.2	0	0	---	0.00	30.060 
06:15	20.8	20.8	20.8	82	16.2	0	1	248	0.00	30.061 
06:20	20.8	20.8	20.8	83	16.5	0	1	248	0.00	30.063 
06:25	20.8	20.8	20.8	84	16.7	0	2	248	0.00	30.062 
06:30	21.0	21.0	21.0	84	16.9	1	2	248	0.00	30.062 
06:35	21.1	21.1	21.1	85	17.3	1	3	248	0.00	30.063 
06:40	21.1	21.1	21.1	85	17.3	1	4	248	0.00	30.063 
06:45	21.1	21.1	21.1	85	17.3	1	3	248	0.00	30.062 
06:50	21.1	21.1	21.1	85	17.3	1	3	248	0.00	30.063 
06:55	21.1	21.1	21.1	85	17.3	0	2	248	0.00	30.063 
07:00	21.0	21.0	21.0	85	17.2	0	2	248	0.00	30.064 
07:05	21.0	21.0	21.0	85	17.2	0	1	248	0.00	30.064 
07:10	20.8	20.8	20.8	85	17.0	0	3	248	0.00	30.066 
07:15	20.8	20.8	20.8	86	17.3	1	2	248	0.00	30.068 
07:20	20.8	20.8	20.8	86	17.3	0	2	248	0.00	30.070 
07:25	20.6	20.6	20.6	86	17.1	0	2	248	0.00	30.068 
07:30	20.6	20.6	20.6	86	17.1	1	2	248	0.00	30.066 
07:35	20.6	20.6	20.6	86	17.1	1	3	248	0.00	30.067 
07:40	20.8	20.8	20.8	86	17.3	1	2	225	0.00	30.066 
07:45	20.8	20.8	20.8	86	17.3	1	4	248	0.00	30.068 
07:50	20.8	20.8	20.8	86	17.3	1	2	248	0.00	30.070 
07:55	20.6	20.6	20.6	86	17.1	0	2	248	0.00	30.073 
08:00	20.6	20.6	20.6	86	17.1	0	2	248	0.00	30.074 
08:05	20.6	20.6	20.6	86	17.1	0	2	248	0.00	30.076 
08:10	20.6	20.6	20.6	86	17.1	0	2	248	0.00	30.079 
08:15	20.6	20.6	20.6	86	17.1	1	2	248	0.00	30.078 
08:20	20.8	20.8	20.8	87	17.6	1	4	248	0.00	30.080 
08:25	21.0	21.0	21.0	87	17.8	1	3	248	0.00	30.080 
08:30	21.3	21.3	21.3	87	18.0	1	3	248	0.00	30.080 
08:35	21.6	21.6	21.6	86	18.1	1	2	248	0.00	30.081 
08:40	21.9	21.9	21.9	86	18.4	1	3	248	0.00	30.080 
08:45	22.2	22.2	22.2	85	18.4	1	4	248	0.00	30.080 
08:50	22.5	22.5	22.5	85	18.7	1	4	248	0.00	30.079 
08:55	22.9	22.9	22.9	84	18.8	1	3	248	0.00	30.079 
09:00	23.2	23.2	23.2	83	18.8	1	4	248	0.00	30.078 
09:05	23.5	23.5	23.5	82	18.8	2	5	248	0.00	30.079 
09:10	23.6	23.6	23.6	81	18.6	2	5	248	0.00	30.079 
09:15	23.8	23.8	23.8	81	18.8	2	6	225	0.00	30.079 
09:20	24.1	24.1	24.1	81	19.1	2	6	248	0.00	30.080 
09:25	24.4	24.4	24.4	80	19.1	2	5	248	0.00	30.082 
09:30	24.5	24.5	24.5	79	18.9	1	4	248	0.00	30.080 
09:35	25.0	25.0	25.0	78	19.1	1	5	248	0.00	30.079 
09:40	25.3	25.3	25.3	77	19.1	1	2	248	0.00	30.079 
09:45	25.7	25.7	25.7	77	19.5	2	7	248	0.00	30.078 
09:50	26.0	26.0	26.0	76	19.5	2	6	225	0.00	30.079 
09:55	26.3	26.3	26.3	75	19.5	2	6	248	0.00	30.080 
10:00	26.4	26.4	26.4	75	19.6	1	4	248	0.00	30.078 
10:05	26.6	26.6	26.6	74	19.5	2	5	248	0.00	30.078 
10:10	26.9	26.9	26.9	74	19.7	2	5	248	0.00	30.080 
10:15	27.0	27.0	27.0	73	19.5	2	7	248	0.00	30.078 
10:20	27.2	27.2	27.2	73	19.7	2	5	248	0.00	30.078 
10:25	27.5	27.5	27.5	73	20.0	2	5	248	0.00	30.077 
10:30	27.8	27.8	27.8	72	20.0	2	7	248	0.00	30.077 
10:35	27.8	23.2	27.8	71	19.6	4	10	248	0.00	30.077 
10:40	27.6	27.6	27.6	72	19.8	3	9	248	0.00	30.077 
10:45	27.6	27.6	27.6	71	19.4	3	7	248	0.00	30.077 
10:50	27.8	27.8	27.8	71	19.6	3	6	248	0.00	30.077 
10:55	27.9	27.9	27.9	71	19.7	2	5	248	0.00	30.077 
11:00	28.1	28.1	28.1	70	19.6	3	6	248	0.00	30.076 
11:05	28.2	28.2	28.2	70	19.7	2	5	248	0.00	30.078 
11:10	28.5	28.5	28.5	70	20.0	1	2	248	0.00	30.075 
11:15	28.7	28.7	28.7	69	19.8	1	3	270	0.00	30.072 
11:20	29.0	29.0	29.0	68	19.8	1	3	248	0.00	30.071 
11:25	29.1	29.1	29.1	67	19.5	2	4	270	0.00	30.070 
11:30	29.3	29.3	29.3	67	19.7	1	6	248	0.00	30.068 
11:35	29.4	29.4	29.4	67	19.8	2	4	248	0.00	30.067 
11:40	29.5	29.5	29.5	66	19.6	1	5	248	0.00	30.064 
11:45	29.8	29.8	29.8	65	19.5	2	4	248	0.00	30.061 
11:50	30.1	30.1	30.1	66	20.1	1	3	248	0.00	30.061 
11:55	30.3	30.3	30.3	65	20.0	2	5	248	0.00	30.060 
12:00	30.4	30.4	30.4	65	20.1	1	3	248	0.00	30.054 
12:05	30.6	30.6	30.6	64	19.9	1	3	270	0.00	30.052 
12:10	30.9	30.9	30.9	65	20.5	1	2	248	0.00	30.048 
12:15	31.0	31.0	31.0	64	20.3	2	5	248	0.00	30.047 
12:20	31.0	31.0	31.0	62	19.5	2	7	248	0.00	30.046 
12:25	30.9	30.9	30.9	62	19.4	2	7	248	0.00	30.045 
12:30	30.9	30.9	30.9	62	19.4	2	7	270	0.00	30.045 
12:35	31.0	31.0	31.0	62	19.5	3	8	248	0.00	30.045 
12:40	30.9	26.8	30.9	62	19.4	4	8	248	0.00	30.045 
12:45	31.0	31.0	31.0	62	19.5	3	6	248	0.00	30.044 
12:50	31.2	31.2	31.2	62	19.7	3	10	248	0.00	30.042 
12:55	31.2	31.2	31.2	62	19.7	3	10	248	0.00	30.040 
13:00	31.5	31.5	31.5	60	19.2	2	5	248	0.00	30.036 
13:05	31.5	31.5	31.5	60	19.2	3	9	270	0.00	30.034 
13:10	31.5	27.5	31.5	60	19.2	4	9	270	0.00	30.033 
13:15	31.3	27.3	31.3	61	19.4	4	10	270	0.00	30.031 
13:20	31.3	27.3	31.3	61	19.4	4	9	270	0.00	30.030 
13:25	31.5	31.5	31.5	61	19.6	3	7	270	0.00	30.030 
13:30	31.5	31.5	31.5	59	18.8	3	10	248	0.00	30.028 
13:35	31.8	31.8	31.8	60	19.5	3	9	270	0.00	30.029 
13:40	31.9	28.0	31.9	59	19.2	4	9	270	0.00	30.028 
13:45	31.8	27.8	31.8	59	19.1	4	12	270	0.00	30.025 
13:50	31.8	27.8	31.8	60	19.5	4	7	248	0.00	30.023 
13:55	32.1	32.1	32.1	60	19.8	3	6	248	0.00	30.021 
14:00	32.4	32.4	32.4	60	20.1	3	10	248	0.00	30.017 
14:05	32.4	28.5	32.4	59	19.7	4	9	270	0.00	30.018 
14:10	32.4	32.4	32.4	59	19.7	3	5	270	0.00	30.024 
14:15	32.1	32.1	32.1	58	19.0	3	6	270	0.00	30.026 
14:20	32.1	32.1	32.1	60	19.8	3	10	248	0.00	30.027 
14:25	32.7	32.7	32.7	60	20.4	2	5	248	0.00	30.026 
14:30	32.8	29.0	32.8	58	19.7	4	11	270	0.00	30.026 
14:35	32.4	32.4	32.4	59	19.7	3	12	270	0.00	30.024 
14:40	32.2	32.2	32.2	60	19.9	2	5	270	0.00	30.025 
14:45	32.2	32.2	32.2	59	19.5	2	8	248	0.00	30.021 
14:50	32.4	32.4	32.4	59	19.7	2	5	270	0.00	30.021 
14:55	32.4	32.4	32.4	59	19.7	3	4	270	0.00	30.019 
15:00	32.4	32.4	32.4	58	19.3	3	6	270	0.00	30.018 
15:05	31.9	28.0	31.9	58	18.8	4	10	270	0.00	30.021 
15:10	31.3	27.3	31.3	58	18.3	4	10	248	0.00	30.023 
15:15	31.0	26.9	31.0	59	18.4	4	9	270	0.00	30.026 
15:20	31.0	26.9	31.0	59	18.4	4	10	270	0.00	30.028 
15:25	30.9	26.8	30.9	59	18.3	4	10	248	0.00	30.027 
15:30	31.0	31.0	31.0	59	18.4	3	7	248	0.00	30.027 
15:35	30.9	30.9	30.9	59	18.3	3	10	248	0.00	30.025 
15:40	30.7	30.7	30.7	60	18.5	3	7	270	0.00	30.026 
15:45	30.6	30.6	30.6	61	18.8	2	6	248	0.00	30.030 
15:50	30.7	30.7	30.7	61	18.9	3	7	248	0.00	30.030 
15:55	30.9	30.9	30.9	61	19.1	2	5	248	0.00	30.030 
16:00	30.7	30.7	30.7	61	18.9	3	9	248	0.00	30.031 
16:05	30.7	26.6	30.7	61	18.9	4	9	270	0.00	30.034 
16:10	30.6	30.6	30.6	62	19.2	3	9	248	0.00	30.035 
16:15	30.6	30.6	30.6	62	19.2	3	10	248	0.00	30.035 
16:20	30.4	25.2	30.4	62	19.0	5	15	270	0.00	30.039 
16:25	30.4	26.2	30.4	63	19.3	4	9	248	0.00	30.041 
16:30	30.4	30.4	30.4	64	19.7	3	10	248	0.00	30.041 
16:35	30.4	30.4	30.4	65	20.1	2	7	248	0.00	30.041 
16:40	30.4	30.4	30.4	65	20.1	3	7	248	0.00	30.041 
16:45	30.3	30.3	30.3	65	20.0	3	9	248	0.00	30.044 
16:50	30.0	25.8	30.0	67	20.4	4	10	248	0.00	30.046 
16:55	29.8	29.8	29.8	69	20.9	3	11	248	0.00	30.047 
17:00	29.7	29.7	29.7	70	21.1	2	7	248	0.00	30.048 
17:05	29.5	29.5	29.5	70	20.9	2	5	248	0.00	30.049 
17:10	29.5	25.2	29.5	69	20.6	4	10	270	0.00	30.050 
17:15	29.5	25.2	29.5	68	20.3	4	13	270	0.00	30.052 
17:20	29.5	29.5	29.5	69	20.6	3	9	270	0.00	30.052 
17:25	29.4	25.1	29.4	69	20.5	4	11	270	0.00	30.054 
17:30	29.1	29.1	29.1	69	20.2	3	7	270	0.00	30.058 
17:35	29.1	29.1	29.1	68	19.9	3	7	270	0.00	30.060 
17:40	29.0	29.0	29.0	66	19.1	3	7	270	0.00	30.063 
17:45	29.0	29.0	29.0	66	19.1	2	7	270	0.00	30.065 
17:50	28.8	28.8	28.8	66	18.9	2	7	248	0.00	30.067 
17:55	28.5	28.5	28.5	66	18.6	1	4	248	0.00	30.067 
18:00	28.4	28.4	28.4	65	18.2	2	5	270	0.00	30.068 
18:05	28.2	28.2	28.2	65	18.0	2	6	270	0.00	30.069 
18:10	27.9	27.9	27.9	65	17.7	3	7	270	0.00	30.068 
18:15	27.8	27.8	27.8	66	17.9	1	4	270	0.00	30.069 
18:20	27.8	27.8	27.8	67	18.3	1	4	248	0.00	30.070 
18:25	27.6	27.6	27.6	67	18.1	2	4	248	0.00	30.071 
18:30	27.3	22.6	27.3	65	17.1	4	11	270	0.00	30.073 
18:35	27.0	22.3	27.0	64	16.5	4	10	270	0.00	30.075 
18:40	26.6	21.8	26.6	63	15.7	4	8	270	0.00	30.078 
18:45	26.3	26.3	26.3	62	15.1	3	9	270	0.00	30.082 
18:50	26.0	21.1	26.0	63	15.2	4	9	270	0.00	30.083 
18:55	25.7	25.7	25.7	63	14.9	3	6	248	0.00	30.083 
19:00	25.4	25.4	25.4	64	14.9	3	8	248	0.00	30.083 
19:05	25.3	25.3	25.3	64	14.9	3	6	248	0.00	30.083 
19:10	25.1	25.1	25.1	65	15.0	3	10	248	0.00	30.086 
19:15	24.8	24.8	24.8	65	14.7	3	8	248	0.00	30.086 
19:20	24.7	24.7	24.7	64	14.3	3	9	270	0.00	30.087 
19:25	24.5	24.5	24.5	63	13.7	3	10	270	0.00	30.087 
19:30	24.2	24.2	24.2	63	13.4	3	6	270	0.00	30.089 
19:35	24.1	24.1	24.1	64	13.7	2	4	248	0.00	30.089 
19:40	23.9	23.9	23.9	64	13.5	3	6	248	0.00	30.089 
19:45	23.6	23.6	23.6	64	13.2	1	3	270	0.00	30.089 
19:50	23.5	23.5	23.5	64	13.1	2	4	248	0.00	30.089 
19:55	23.3	23.3	23.3	64	13.0	2	7	248	0.00	30.089 
20:00	23.2	23.2	23.2	64	12.9	3	6	270	0.00	30.088 
20:05	23.0	23.0	23.0	64	12.7	2	7	248	0.00	30.087 
20:10	22.9	22.9	22.9	64	12.6	2	6	248	0.00	30.086 
20:15	22.7	22.7	22.7	64	12.4	3	5	248	0.00	30.087 
20:20	22.5	22.5	22.5	64	12.2	2	4	270	0.00	30.087 
20:25	22.4	22.4	22.4	65	12.4	2	4	270	0.00	30.087 
20:30	22.2	22.2	22.2	64	11.9	2	5	248	0.00	30.087 
20:35	22.1	22.1	22.1	64	11.8	2	5	225	0.00	30.088 
20:40	21.9	21.9	21.9	64	11.6	1	3	248	0.00	30.088 
20:45	21.9	21.9	21.9	64	11.6	1	4	248	0.00	30.087 
20:50	21.8	21.8	21.8	64	11.5	1	4	248	0.00	30.086 
20:55	21.8	21.8	21.8	64	11.5	2	5	248	0.00	30.085 
21:00	21.6	21.6	21.6	64	11.3	1	4	248	0.00	30.083 
21:05	21.6	21.6	21.6	64	11.3	1	6	225	0.00	30.080 
21:10	21.6	21.6	21.6	64	11.3	1	3	225	0.00	30.081 
21:15	21.4	21.4	21.4	65	11.5	0	2	248	0.00	30.080 
21:20	21.3	21.3	21.3	65	11.4	0	2	248	0.00	30.083 
21:25	21.3	21.3	21.3	65	11.4	0	3	248	0.00	30.082 
21:30	21.1	21.1	21.1	65	11.2	1	3	248	0.00	30.080 
21:35	21.1	21.1	21.1	65	11.2	0	3	248	0.00	30.078 
21:40	21.1	21.1	21.1	66	11.5	0	2	248	0.00	30.077 
21:45	21.1	21.1	21.1	66	11.5	0	2	248	0.00	30.077 
21:50	21.1	21.1	21.1	67	11.9	1	4	248	0.00	30.075 
21:55	21.3	21.3	21.3	67	12.1	1	2	248	0.00	30.074 
22:00	21.4	21.4	21.4	67	12.2	1	2	248	0.00	30.073 
22:05	21.4	21.4	21.4	67	12.2	1	3	248	0.00	30.071 
22:10	21.4	21.4	21.4	67	12.2	1	3	270	0.00	30.070 
22:15	21.4	21.4	21.4	67	12.2	0	2	270	0.00	30.071 
22:20	21.3	21.3	21.3	67	12.1	0	1	270	0.00	30.071 
22:25	21.3	21.3	21.3	67	12.1	0	1	270	0.00	30.072 
22:30	21.1	21.1	21.1	68	12.2	0	2	270	0.00	30.071 
22:35	21.1	21.1	21.1	68	12.2	1	2	270	0.00	30.071 
22:40	21.0	21.0	21.0	68	12.1	0	2	270	0.00	30.072 
22:45	21.0	21.0	21.0	69	12.5	1	4	248	0.00	30.072 
22:50	21.0	21.0	21.0	69	12.5	1	5	248	0.00	30.071 
22:55	20.8	20.8	20.8	69	12.3	1	6	248	0.00	30.070 
23:00	20.8	20.8	20.8	69	12.3	1	5	270	0.00	30.070 
23:05	20.6	20.6	20.6	70	12.4	1	5	248	0.00	30.069 
23:10	20.6	20.6	20.6	70	12.4	1	3	248	0.00	30.069 
23:15	20.5	20.5	20.5	70	12.3	1	3	248	0.00	30.069 
23:20	20.5	20.5	20.5	70	12.3	2	4	248	0.00	30.068 
23:25	20.5	20.5	20.5	70	12.3	1	3	248	0.00	30.065 
23:30	20.3	20.3	20.3	70	12.1	1	4	248	0.00	30.061 
23:35	20.2	20.2	20.2	70	12.0	1	3	248	0.00	30.062 
23:40	20.0	20.0	20.0	69	11.5	1	5	248	0.00	30.062 
23:45	20.0	20.0	20.0	69	11.5	2	4	248	0.00	30.063 
23:50	19.9	19.9	19.9	68	11.1	1	4	248	0.00	30.060 
23:55	19.7	19.7	19.7	69	11.2	1	4	248	0.00	30.060 

CoCoRaHS
IN-AL-39
A2 Web Hosting
Creative Commons License
GoDaddy
search engine by freefind advanced

loaded 2018-11-15 14:09:02 • last modified 2010-11-18 10:43:29
Privacy PolicyDisclaimer
• wx.awcolley.com is powered by PmWiki v.2002016 •
• all content (unless otherwise noted) © 2018 A W Colley